Terminal Aerodrome Forecast
Issued by NWS

Home | Current Version | Previous Version | Text Only | Print | Product List | Glossary Off
Versions: 1 2 3 4 5 6 7 8 9 10 11 12 13

000
FTUS43 KICT 182322
TAFRSL
TAF
KRSL 182322Z 1900/1924 02007KT P6SM FEW250
     FM191600 14006KT P6SM SKC
     FM191800 17011KT P6SM FEW250
     FM192000 17017G23KT P6SM FEW250=

USA.gov is the U.S. government's official web portal to all federal, state and local government web resources and services.